Time;durP1;ratioP1;P1;durP2;ratioP2;P2;SDS_P1;SDS_P2;PMS_P1;PMS_P2;Temp;Humidity;BMP_temperature;BMP_pressure;BME280_temperature;BME280_humidity;BME280_pressure;Samples;Min_cycle;Max_cycle;Signal;HPM_P1;HPM_P2
2019/12/31 00:00:50;;;;;;;18.2;13.4;;;;;;;-0.12;78.83203;96481.67;;;;
2019/12/31 00:01:51;;;;;;;18.2;13.4;;;;;;;-0.12;78.83203;96481.67;;;;
2019/12/31 00:02:51;;;;;;;18.2;13.4;;;;;;;-0.12;78.83203;96481.67;;;;
2019/12/31 00:03:52;;;;;;;18.2;13.4;;;;;;;-0.12;78.83203;96481.67;;;;
2019/12/31 00:04:52;;;;;;;18.2;13.4;;;;;;;-0.12;78.83203;96481.67;;;;
2019/12/31 00:05:53;;;;;;;18.2;13.4;;;;;;;-0.12;78.83203;96481.67;;;;
2019/12/31 00:06:53;;;;;;;18.2;13.4;;;;;;;-0.12;78.83203;96481.67;;;;
2019/12/31 00:07:54;;;;;;;18.2;13.4;;;;;;;-0.12;78.83203;96481.67;;;;
2019/12/31 00:08:54;;;;;;;19.6;13.35;;;;;;;-0.1;79.14746;96482.84;;;;
2019/12/31 00:09:55;;;;;;;19.6;13.35;;;;;;;-0.1;79.14746;96482.84;;;;
2019/12/31 00:11:04;;;;;;;19.6;13.35;;;;;;;-0.1;79.14746;96482.84;;;;
2019/12/31 00:12:54;;;;;;;19.6;13.35;;;;;;;-0.1;79.14746;96482.84;;;;
2019/12/31 00:14:25;;;;;;;19.6;13.35;;;;;;;-0.1;79.14746;96482.84;;;;
2019/12/31 00:15:26;;;;;;;19.6;13.35;;;;;;;-0.1;79.14746;96482.84;;;;
2019/12/31 00:16:27;;;;;;;19.6;13.35;;;;;;;-0.1;79.14746;96482.84;;;;
2019/12/31 00:17:28;;;;;;;19.6;13.35;;;;;;;-0.1;79.14746;96482.84;;;;
2019/12/31 00:18:28;;;;;;;19.6;13.35;;;;;;;-0.1;79.14746;96482.84;;;;
2019/12/31 00:19:29;;;;;;;18.85;13.75;;;;;;;-0.13;79.52832;96456.59;;;;
2019/12/31 00:20:29;;;;;;;18.85;13.75;;;;;;;-0.13;79.52832;96456.59;;;;
2019/12/31 00:21:30;;;;;;;18.85;13.75;;;;;;;-0.13;79.52832;96456.59;;;;
2019/12/31 00:22:30;;;;;;;18.85;13.75;;;;;;;-0.13;79.52832;96456.59;;;;
2019/12/31 00:23:31;;;;;;;18.85;13.75;;;;;;;-0.13;79.52832;96456.59;;;;
2019/12/31 00:24:31;;;;;;;18.85;13.75;;;;;;;-0.13;79.52832;96456.59;;;;
2019/12/31 00:25:32;;;;;;;18.85;13.75;;;;;;;-0.13;79.52832;96456.59;;;;
2019/12/31 00:26:32;;;;;;;18.85;13.75;;;;;;;-0.13;79.52832;96456.59;;;;
2019/12/31 00:27:33;;;;;;;18.85;13.75;;;;;;;-0.13;79.52832;96456.59;;;;
2019/12/31 00:28:33;;;;;;;18.85;13.75;;;;;;;-0.13;79.52832;96456.59;;;;
2019/12/31 00:29:34;;;;;;;18.85;13.75;;;;;;;-0.13;79.52832;96456.59;;;;
2019/12/31 00:30:34;;;;;;;18.85;13.75;;;;;;;-0.13;79.52832;96456.59;;;;
2019/12/31 00:31:34;;;;;;;18.85;13.75;;;;;;;-0.13;79.52832;96456.59;;;;
2019/12/31 00:32:35;;;;;;;18.85;13.75;;;;;;;-0.13;79.52832;96456.59;;;;
2019/12/31 00:33:35;;;;;;;18.85;13.75;;;;;;;-0.13;79.52832;96456.59;;;;
2019/12/31 00:34:36;;;;;;;18.85;13.75;;;;;;;-0.13;79.52832;96456.59;;;;
2019/12/31 00:35:36;;;;;;;18.85;13.75;;;;;;;-0.13;79.52832;96456.59;;;;
2019/12/31 00:36:37;;;;;;;18.85;13.75;;;;;;;-0.13;79.52832;96456.59;;;;
2019/12/31 00:37:37;;;;;;;18.85;13.75;;;;;;;-0.13;79.52832;96456.59;;;;
2019/12/31 00:38:38;;;;;;;18.85;13.75;;;;;;;-0.13;79.52832;96456.59;;;;
2019/12/31 00:39:38;;;;;;;18.85;13.75;;;;;;;-0.13;79.52832;96456.59;;;;
2019/12/31 00:40:39;;;;;;;23;16.15;;;;;;;0.21;79.83984;96456.03;;;;
2019/12/31 00:41:39;;;;;;;23;16.15;;;;;;;0.21;79.83984;96456.03;;;;
2019/12/31 00:42:40;;;;;;;23;16.15;;;;;;;0.21;79.83984;96456.03;;;;
2019/12/31 00:43:40;;;;;;;23;16.15;;;;;;;0.21;79.83984;96456.03;;;;
2019/12/31 00:44:41;;;;;;;23;16.15;;;;;;;0.21;79.83984;96456.03;;;;
2019/12/31 00:45:41;;;;;;;23;16.15;;;;;;;0.21;79.83984;96456.03;;;;
2019/12/31 00:46:42;;;;;;;23;16.15;;;;;;;0.21;79.83984;96456.03;;;;
2019/12/31 00:47:42;;;;;;;23;16.15;;;;;;;0.21;79.83984;96456.03;;;;
2019/12/31 00:48:43;;;;;;;23;16.15;;;;;;;0.21;79.83984;96456.03;;;;
2019/12/31 00:49:43;;;;;;;23;16.15;;;;;;;0.21;79.83984;96456.03;;;;
2019/12/31 00:50:43;;;;;;;20.45;14.9;;;;;;;0.32;80.49707;96448.32;;;;
2019/12/31 00:51:44;;;;;;;20.45;14.9;;;;;;;0.32;80.49707;96448.32;;;;
2019/12/31 00:52:45;;;;;;;20.45;14.9;;;;;;;0.32;80.49707;96448.32;;;;
2019/12/31 00:53:45;;;;;;;20.45;14.9;;;;;;;0.32;80.49707;96448.32;;;;
2019/12/31 00:54:46;;;;;;;20.45;14.9;;;;;;;0.32;80.49707;96448.32;;;;
2019/12/31 00:55:46;;;;;;;20.45;14.9;;;;;;;0.32;80.49707;96448.32;;;;
2019/12/31 00:56:46;;;;;;;20.45;14.9;;;;;;;0.32;80.49707;96448.32;;;;
2019/12/31 00:57:47;;;;;;;20.45;14.9;;;;;;;0.32;80.49707;96448.32;;;;
2019/12/31 00:58:47;;;;;;;20.45;14.9;;;;;;;0.32;80.49707;96448.32;;;;
2019/12/31 00:59:48;;;;;;;20.45;14.9;;;;;;;0.32;80.49707;96448.32;;;;
2019/12/31 01:00:49;;;;;;;20.45;14.9;;;;;;;0.32;80.49707;96448.32;;;;
2019/12/31 01:01:49;;;;;;;17.55;13.35;;;;;;;0.47;80.46484;96440.2;;;;
2019/12/31 01:02:50;;;;;;;17.55;13.35;;;;;;;0.47;80.46484;96440.2;;;;
2019/12/31 01:03:51;;;;;;;17.55;13.35;;;;;;;0.47;80.46484;96440.2;;;;
2019/12/31 01:04:52;;;;;;;17.55;13.35;;;;;;;0.47;80.46484;96440.2;;;;
2019/12/31 01:05:52;;;;;;;17.55;13.35;;;;;;;0.47;80.46484;96440.2;;;;
2019/12/31 01:06:53;;;;;;;17.55;13.35;;;;;;;0.47;80.46484;96440.2;;;;
2019/12/31 01:07:53;;;;;;;17.55;13.35;;;;;;;0.47;80.46484;96440.2;;;;
2019/12/31 01:08:54;;;;;;;17.55;13.35;;;;;;;0.47;80.46484;96440.2;;;;
2019/12/31 01:09:54;;;;;;;17.55;13.35;;;;;;;0.47;80.46484;96440.2;;;;
2019/12/31 01:10:55;;;;;;;17.55;13.35;;;;;;;0.47;80.46484;96440.2;;;;
2019/12/31 01:11:55;;;;;;;19.55;13.85;;;;;;;0.49;80.54102;96452.86;;;;
2019/12/31 01:12:56;;;;;;;19.55;13.85;;;;;;;0.49;80.54102;96452.86;;;;
2019/12/31 01:13:56;;;;;;;19.55;13.85;;;;;;;0.49;80.54102;96452.86;;;;
2019/12/31 01:14:57;;;;;;;19.55;13.85;;;;;;;0.49;80.54102;96452.86;;;;
2019/12/31 01:15:57;;;;;;;19.55;13.85;;;;;;;0.49;80.54102;96452.86;;;;
2019/12/31 01:16:58;;;;;;;19.55;13.85;;;;;;;0.49;80.54102;96452.86;;;;
2019/12/31 01:17:58;;;;;;;19.55;13.85;;;;;;;0.49;80.54102;96452.86;;;;
2019/12/31 01:18:58;;;;;;;19.55;13.85;;;;;;;0.49;80.54102;96452.86;;;;
2019/12/31 01:19:59;;;;;;;19.55;13.85;;;;;;;0.49;80.54102;96452.86;;;;
2019/12/31 01:20:59;;;;;;;19.55;13.85;;;;;;;0.49;80.54102;96452.86;;;;
2019/12/31 01:22:00;;;;;;;19.55;13.85;;;;;;;0.49;80.54102;96452.86;;;;
2019/12/31 01:23:00;;;;;;;19.75;13.7;;;;;;;0.46;80.91113;96461.97;;;;
2019/12/31 01:24:01;;;;;;;19.75;13.7;;;;;;;0.46;80.91113;96461.97;;;;
2019/12/31 01:25:01;;;;;;;19.75;13.7;;;;;;;0.46;80.91113;96461.97;;;;
2019/12/31 01:26:02;;;;;;;19.75;13.7;;;;;;;0.46;80.91113;96461.97;;;;
2019/12/31 01:27:02;;;;;;;19.75;13.7;;;;;;;0.46;80.91113;96461.97;;;;
2019/12/31 01:28:03;;;;;;;19.75;13.7;;;;;;;0.46;80.91113;96461.97;;;;
2019/12/31 01:29:03;;;;;;;19.75;13.7;;;;;;;0.46;80.91113;96461.97;;;;
2019/12/31 01:30:04;;;;;;;19.75;13.7;;;;;;;0.46;80.91113;96461.97;;;;
2019/12/31 01:31:05;;;;;;;19.75;13.7;;;;;;;0.46;80.91113;96461.97;;;;
2019/12/31 01:32:06;;;;;;;19.75;13.7;;;;;;;0.46;80.91113;96461.97;;;;
2019/12/31 01:33:06;;;;;;;19.75;13.7;;;;;;;0.46;80.91113;96461.97;;;;
2019/12/31 01:34:07;;;;;;;18.55;12.3;;;;;;;0.5;81.21094;96476.7;;;;
2019/12/31 01:35:07;;;;;;;18.55;12.3;;;;;;;0.5;81.21094;96476.7;;;;
2019/12/31 01:36:08;;;;;;;18.55;12.3;;;;;;;0.5;81.21094;96476.7;;;;
2019/12/31 01:37:08;;;;;;;18.55;12.3;;;;;;;0.5;81.21094;96476.7;;;;
2019/12/31 01:38:09;;;;;;;18.55;12.3;;;;;;;0.5;81.21094;96476.7;;;;
2019/12/31 01:39:09;;;;;;;18.55;12.3;;;;;;;0.5;81.21094;96476.7;;;;
2019/12/31 01:40:16;;;;;;;18.55;12.3;;;;;;;0.5;81.21094;96476.7;;;;
2019/12/31 01:41:17;;;;;;;18.55;12.3;;;;;;;0.5;81.21094;96476.7;;;;
2019/12/31 01:42:17;;;;;;;18.55;12.3;;;;;;;0.5;81.21094;96476.7;;;;
2019/12/31 01:43:18;;;;;;;18.55;12.3;;;;;;;0.5;81.21094;96476.7;;;;
2019/12/31 01:44:18;;;;;;;17.4;12.8;;;;;;;0.54;81.35352;96488.21;;;;
2019/12/31 01:45:19;;;;;;;17.4;12.8;;;;;;;0.54;81.35352;96488.21;;;;
2019/12/31 01:46:20;;;;;;;17.4;12.8;;;;;;;0.54;81.35352;96488.21;;;;
2019/12/31 01:47:20;;;;;;;17.4;12.8;;;;;;;0.54;81.35352;96488.21;;;;
2019/12/31 01:48:21;;;;;;;17.4;12.8;;;;;;;0.54;81.35352;96488.21;;;;
2019/12/31 01:49:21;;;;;;;17.4;12.8;;;;;;;0.54;81.35352;96488.21;;;;
2019/12/31 01:50:22;;;;;;;17.4;12.8;;;;;;;0.54;81.35352;96488.21;;;;
2019/12/31 01:51:22;;;;;;;17.4;12.8;;;;;;;0.54;81.35352;96488.21;;;;
2019/12/31 01:52:23;;;;;;;17.4;12.8;;;;;;;0.54;81.35352;96488.21;;;;
2019/12/31 01:53:23;;;;;;;17.4;12.8;;;;;;;0.54;81.35352;96488.21;;;;
2019/12/31 01:54:24;;;;;;;17;12.3;;;;;;;0.44;81.54199;96467.97;;;;
2019/12/31 01:55:24;;;;;;;17;12.3;;;;;;;0.44;81.54199;96467.97;;;;
2019/12/31 01:56:24;;;;;;;17;12.3;;;;;;;0.44;81.54199;96467.97;;;;
2019/12/31 01:57:25;;;;;;;17;12.3;;;;;;;0.44;81.54199;96467.97;;;;
2019/12/31 01:58:25;;;;;;;17;12.3;;;;;;;0.44;81.54199;96467.97;;;;
2019/12/31 01:59:26;;;;;;;17;12.3;;;;;;;0.44;81.54199;96467.97;;;;
2019/12/31 02:00:26;;;;;;;17;12.3;;;;;;;0.44;81.54199;96467.97;;;;
2019/12/31 02:01:34;;;;;;;17;12.3;;;;;;;0.44;81.54199;96467.97;;;;
2019/12/31 02:03:49;;;;;;;17;12.3;;;;;;;0.44;81.54199;96467.97;;;;
2019/12/31 02:04:50;;;;;;;17;12.3;;;;;;;0.44;81.54199;96467.97;;;;
2019/12/31 02:05:51;;;;;;;15.2;11.8;;;;;;;0.4;81.88965;96473.65;;;;
2019/12/31 02:06:52;;;;;;;15.2;11.8;;;;;;;0.4;81.88965;96473.65;;;;
2019/12/31 02:07:53;;;;;;;15.2;11.8;;;;;;;0.4;81.88965;96473.65;;;;
2019/12/31 02:08:53;;;;;;;15.2;11.8;;;;;;;0.4;81.88965;96473.65;;;;
2019/12/31 02:09:54;;;;;;;15.2;11.8;;;;;;;0.4;81.88965;96473.65;;;;
2019/12/31 02:10:54;;;;;;;15.2;11.8;;;;;;;0.4;81.88965;96473.65;;;;
2019/12/31 02:11:55;;;;;;;15.2;11.8;;;;;;;0.4;81.88965;96473.65;;;;
2019/12/31 02:12:55;;;;;;;15.2;11.8;;;;;;;0.4;81.88965;96473.65;;;;
2019/12/31 02:13:56;;;;;;;15.2;11.8;;;;;;;0.4;81.88965;96473.65;;;;
2019/12/31 02:14:56;;;;;;;15.2;11.8;;;;;;;0.4;81.88965;96473.65;;;;
2019/12/31 02:15:56;;;;;;;15.15;11.4;;;;;;;0.27;82.16699;96465.19;;;;
2019/12/31 02:16:57;;;;;;;15.15;11.4;;;;;;;0.27;82.16699;96465.19;;;;
2019/12/31 02:17:57;;;;;;;15.15;11.4;;;;;;;0.27;82.16699;96465.19;;;;
2019/12/31 02:18:58;;;;;;;15.15;11.4;;;;;;;0.27;82.16699;96465.19;;;;
2019/12/31 02:19:58;;;;;;;15.15;11.4;;;;;;;0.27;82.16699;96465.19;;;;
2019/12/31 02:20:59;;;;;;;15.15;11.4;;;;;;;0.27;82.16699;96465.19;;;;
2019/12/31 02:22:00;;;;;;;15.15;11.4;;;;;;;0.27;82.16699;96465.19;;;;
2019/12/31 02:23:00;;;;;;;15.15;11.4;;;;;;;0.27;82.16699;96465.19;;;;
2019/12/31 02:24:01;;;;;;;15.15;11.4;;;;;;;0.27;82.16699;96465.19;;;;
2019/12/31 02:25:01;;;;;;;15.15;11.4;;;;;;;0.27;82.16699;96465.19;;;;
2019/12/31 02:26:02;;;;;;;15.15;11.4;;;;;;;0.27;82.16699;96465.19;;;;
2019/12/31 02:27:02;;;;;;;14.9;11.25;;;;;;;0.21;82.60547;96466.6;;;;
2019/12/31 02:28:03;;;;;;;14.9;11.25;;;;;;;0.21;82.60547;96466.6;;;;
2019/12/31 02:29:04;;;;;;;14.9;11.25;;;;;;;0.21;82.60547;96466.6;;;;
2019/12/31 02:30:04;;;;;;;14.9;11.25;;;;;;;0.21;82.60547;96466.6;;;;
2019/12/31 02:31:05;;;;;;;14.9;11.25;;;;;;;0.21;82.60547;96466.6;;;;
2019/12/31 02:32:05;;;;;;;14.9;11.25;;;;;;;0.21;82.60547;96466.6;;;;
2019/12/31 02:33:06;;;;;;;14.9;11.25;;;;;;;0.21;82.60547;96466.6;;;;
2019/12/31 02:34:08;;;;;;;14.9;11.25;;;;;;;0.21;82.60547;96466.6;;;;
2019/12/31 02:35:08;;;;;;;14.9;11.25;;;;;;;0.21;82.60547;96466.6;;;;
2019/12/31 02:36:18;;;;;;;14.9;11.25;;;;;;;0.21;82.60547;96466.6;;;;
2019/12/31 02:37:47;;;;;;;14.3;11.3;;;;;;;0.13;82.72461;96470.43;;;;
2019/12/31 02:38:47;;;;;;;14.3;11.3;;;;;;;0.13;82.72461;96470.43;;;;
2019/12/31 02:39:48;;;;;;;14.3;11.3;;;;;;;0.13;82.72461;96470.43;;;;
2019/12/31 02:40:48;;;;;;;14.3;11.3;;;;;;;0.13;82.72461;96470.43;;;;
2019/12/31 02:41:49;;;;;;;14.3;11.3;;;;;;;0.13;82.72461;96470.43;;;;
2019/12/31 02:42:49;;;;;;;14.3;11.3;;;;;;;0.13;82.72461;96470.43;;;;
2019/12/31 02:43:49;;;;;;;14.3;11.3;;;;;;;0.13;82.72461;96470.43;;;;
2019/12/31 02:44:50;;;;;;;14.3;11.3;;;;;;;0.13;82.72461;96470.43;;;;
2019/12/31 02:45:50;;;;;;;14.3;11.3;;;;;;;0.13;82.72461;96470.43;;;;
2019/12/31 02:46:51;;;;;;;14.3;11.3;;;;;;;0.13;82.72461;96470.43;;;;
2019/12/31 02:47:51;;;;;;;13.55;10.55;;;;;;;-0.02;82.96582;96469.2;;;;
2019/12/31 02:48:52;;;;;;;13.55;10.55;;;;;;;-0.02;82.96582;96469.2;;;;
2019/12/31 02:49:52;;;;;;;13.55;10.55;;;;;;;-0.02;82.96582;96469.2;;;;
2019/12/31 02:50:53;;;;;;;13.55;10.55;;;;;;;-0.02;82.96582;96469.2;;;;
2019/12/31 02:51:53;;;;;;;13.55;10.55;;;;;;;-0.02;82.96582;96469.2;;;;
2019/12/31 02:52:53;;;;;;;13.55;10.55;;;;;;;-0.02;82.96582;96469.2;;;;
2019/12/31 02:53:54;;;;;;;13.55;10.55;;;;;;;-0.02;82.96582;96469.2;;;;
2019/12/31 02:54:54;;;;;;;13.55;10.55;;;;;;;-0.02;82.96582;96469.2;;;;
2019/12/31 02:55:55;;;;;;;13.55;10.55;;;;;;;-0.02;82.96582;96469.2;;;;
2019/12/31 02:56:55;;;;;;;13.55;10.55;;;;;;;-0.02;82.96582;96469.2;;;;
2019/12/31 02:57:56;;;;;;;13.55;10.55;;;;;;;-0.02;82.96582;96469.2;;;;
2019/12/31 02:58:56;;;;;;;13.05;9.9;;;;;;;-0.26;83.23242;96454.66;;;;
2019/12/31 02:59:57;;;;;;;13.05;9.9;;;;;;;-0.26;83.23242;96454.66;;;;
2019/12/31 03:00:57;;;;;;;13.05;9.9;;;;;;;-0.26;83.23242;96454.66;;;;
2019/12/31 03:01:58;;;;;;;13.05;9.9;;;;;;;-0.26;83.23242;96454.66;;;;
2019/12/31 03:02:58;;;;;;;13.05;9.9;;;;;;;-0.26;83.23242;96454.66;;;;
2019/12/31 03:03:59;;;;;;;13.05;9.9;;;;;;;-0.26;83.23242;96454.66;;;;
2019/12/31 03:04:59;;;;;;;13.05;9.9;;;;;;;-0.26;83.23242;96454.66;;;;
2019/12/31 03:06:00;;;;;;;13.05;9.9;;;;;;;-0.26;83.23242;96454.66;;;;
2019/12/31 03:07:00;;;;;;;13.05;9.9;;;;;;;-0.26;83.23242;96454.66;;;;
2019/12/31 03:08:01;;;;;;;13.05;9.9;;;;;;;-0.26;83.23242;96454.66;;;;
2019/12/31 03:09:01;;;;;;;13.65;9.849999;;;;;;;-0.51;83.76465;96461.87;;;;
2019/12/31 03:10:04;;;;;;;13.65;9.849999;;;;;;;-0.51;83.76465;96461.87;;;;
2019/12/31 03:11:05;;;;;;;13.65;9.849999;;;;;;;-0.51;83.76465;96461.87;;;;
2019/12/31 03:12:05;;;;;;;13.65;9.849999;;;;;;;-0.51;83.76465;96461.87;;;;
2019/12/31 03:13:06;;;;;;;13.65;9.849999;;;;;;;-0.51;83.76465;96461.87;;;;
2019/12/31 03:14:07;;;;;;;13.65;9.849999;;;;;;;-0.51;83.76465;96461.87;;;;
2019/12/31 03:15:07;;;;;;;13.65;9.849999;;;;;;;-0.51;83.76465;96461.87;;;;
2019/12/31 03:16:07;;;;;;;13.65;9.849999;;;;;;;-0.51;83.76465;96461.87;;;;
2019/12/31 03:17:08;;;;;;;13.65;9.849999;;;;;;;-0.51;83.76465;96461.87;;;;
2019/12/31 03:18:08;;;;;;;13.65;9.849999;;;;;;;-0.51;83.76465;96461.87;;;;
2019/12/31 03:19:09;;;;;;;13.65;9.849999;;;;;;;-0.51;83.76465;96461.87;;;;
2019/12/31 03:20:09;;;;;;;11.35;8.450001;;;;;;;-0.68;84.32422;96445.31;;;;
2019/12/31 03:21:10;;;;;;;11.35;8.450001;;;;;;;-0.68;84.32422;96445.31;;;;
2019/12/31 03:22:10;;;;;;;11.35;8.450001;;;;;;;-0.68;84.32422;96445.31;;;;
2019/12/31 03:23:11;;;;;;;11.35;8.450001;;;;;;;-0.68;84.32422;96445.31;;;;
2019/12/31 03:24:11;;;;;;;11.35;8.450001;;;;;;;-0.68;84.32422;96445.31;;;;
2019/12/31 03:25:12;;;;;;;11.35;8.450001;;;;;;;-0.68;84.32422;96445.31;;;;
2019/12/31 03:26:12;;;;;;;11.35;8.450001;;;;;;;-0.68;84.32422;96445.31;;;;
2019/12/31 03:27:13;;;;;;;11.35;8.450001;;;;;;;-0.68;84.32422;96445.31;;;;
2019/12/31 03:28:13;;;;;;;11.35;8.450001;;;;;;;-0.68;84.32422;96445.31;;;;
2019/12/31 03:29:13;;;;;;;11.35;8.450001;;;;;;;-0.68;84.32422;96445.31;;;;
2019/12/31 03:30:14;;;;;;;10.3;7.349999;;;;;;;-0.75;84.52734;96453.05;;;;
2019/12/31 03:31:14;;;;;;;10.3;7.349999;;;;;;;-0.75;84.52734;96453.05;;;;
2019/12/31 03:32:15;;;;;;;10.3;7.349999;;;;;;;-0.75;84.52734;96453.05;;;;
2019/12/31 03:33:15;;;;;;;10.3;7.349999;;;;;;;-0.75;84.52734;96453.05;;;;
2019/12/31 03:34:16;;;;;;;10.3;7.349999;;;;;;;-0.75;84.52734;96453.05;;;;
2019/12/31 03:35:16;;;;;;;10.3;7.349999;;;;;;;-0.75;84.52734;96453.05;;;;
2019/12/31 03:36:17;;;;;;;10.3;7.349999;;;;;;;-0.75;84.52734;96453.05;;;;
2019/12/31 03:37:17;;;;;;;10.3;7.349999;;;;;;;-0.75;84.52734;96453.05;;;;
2019/12/31 03:38:18;;;;;;;10.3;7.349999;;;;;;;-0.75;84.52734;96453.05;;;;
2019/12/31 03:39:18;;;;;;;10.3;7.349999;;;;;;;-0.75;84.52734;96453.05;;;;
2019/12/31 03:40:19;;;;;;;10.3;7.349999;;;;;;;-0.75;84.52734;96453.05;;;;
2019/12/31 03:41:19;;;;;;;8.299999;6.7;;;;;;;-0.85;84.50879;96458.84;;;;
2019/12/31 03:42:19;;;;;;;8.299999;6.7;;;;;;;-0.85;84.50879;96458.84;;;;
2019/12/31 03:43:20;;;;;;;8.299999;6.7;;;;;;;-0.85;84.50879;96458.84;;;;
2019/12/31 03:44:21;;;;;;;8.299999;6.7;;;;;;;-0.85;84.50879;96458.84;;;;
2019/12/31 03:45:21;;;;;;;8.299999;6.7;;;;;;;-0.85;84.50879;96458.84;;;;
2019/12/31 03:46:21;;;;;;;8.299999;6.7;;;;;;;-0.85;84.50879;96458.84;;;;
2019/12/31 03:47:23;;;;;;;8.299999;6.7;;;;;;;-0.85;84.50879;96458.84;;;;
2019/12/31 03:48:24;;;;;;;8.299999;6.7;;;;;;;-0.85;84.50879;96458.84;;;;
2019/12/31 03:49:25;;;;;;;8.299999;6.7;;;;;;;-0.85;84.50879;96458.84;;;;
2019/12/31 03:50:25;;;;;;;8.299999;6.7;;;;;;;-0.85;84.50879;96458.84;;;;
2019/12/31 03:51:31;;;;;;;8.1;6.400001;;;;;;;-1;84.9541;96450.92;;;;
2019/12/31 03:52:32;;;;;;;8.1;6.400001;;;;;;;-1;84.9541;96450.92;;;;
2019/12/31 03:53:32;;;;;;;8.1;6.400001;;;;;;;-1;84.9541;96450.92;;;;
2019/12/31 03:54:33;;;;;;;8.1;6.400001;;;;;;;-1;84.9541;96450.92;;;;
2019/12/31 03:55:33;;;;;;;8.1;6.400001;;;;;;;-1;84.9541;96450.92;;;;
2019/12/31 03:56:33;;;;;;;8.1;6.400001;;;;;;;-1;84.9541;96450.92;;;;
2019/12/31 03:57:34;;;;;;;8.1;6.400001;;;;;;;-1;84.9541;96450.92;;;;
2019/12/31 03:58:34;;;;;;;8.1;6.400001;;;;;;;-1;84.9541;96450.92;;;;
2019/12/31 03:59:35;;;;;;;8.1;6.400001;;;;;;;-1;84.9541;96450.92;;;;
2019/12/31 04:00:35;;;;;;;8.1;6.400001;;;;;;;-1;84.9541;96450.92;;;;
2019/12/31 04:01:36;;;;;;;8.1;6.400001;;;;;;;-1;84.9541;96450.92;;;;
2019/12/31 04:02:36;;;;;;;6.25;4.9;;;;;;;-0.91;85.40918;96449.63;;;;
2019/12/31 04:03:37;;;;;;;6.25;4.9;;;;;;;-0.91;85.40918;96449.63;;;;
2019/12/31 04:04:37;;;;;;;6.25;4.9;;;;;;;-0.91;85.40918;96449.63;;;;
2019/12/31 04:05:58;;;;;;;6.25;4.9;;;;;;;-0.91;85.40918;96449.63;;;;
2019/12/31 04:07:38;;;;;;;6.25;4.9;;;;;;;-0.91;85.40918;96449.63;;;;
2019/12/31 04:12:25;;;;;;;6;4.349999;;;;;;;-0.66;85.53125;96457.09;;;;
2019/12/31 04:13:26;;;;;;;6;4.349999;;;;;;;-0.66;85.53125;96457.09;;;;
2019/12/31 04:14:26;;;;;;;6;4.349999;;;;;;;-0.66;85.53125;96457.09;;;;
2019/12/31 04:15:27;;;;;;;6;4.349999;;;;;;;-0.66;85.53125;96457.09;;;;
2019/12/31 04:16:27;;;;;;;6;4.349999;;;;;;;-0.66;85.53125;96457.09;;;;
2019/12/31 04:17:28;;;;;;;6;4.349999;;;;;;;-0.66;85.53125;96457.09;;;;
2019/12/31 04:18:28;;;;;;;6;4.349999;;;;;;;-0.66;85.53125;96457.09;;;;
2019/12/31 04:19:29;;;;;;;6;4.349999;;;;;;;-0.66;85.53125;96457.09;;;;
2019/12/31 04:20:29;;;;;;;6;4.349999;;;;;;;-0.66;85.53125;96457.09;;;;
2019/12/31 04:21:29;;;;;;;6;4.349999;;;;;;;-0.66;85.53125;96457.09;;;;
2019/12/31 04:22:30;;;;;;;6;4.349999;;;;;;;-0.66;85.53125;96457.09;;;;
2019/12/31 04:23:30;;;;;;;5.1;3.95;;;;;;;-0.4;85.27344;96471.92;;;;
2019/12/31 04:24:31;;;;;;;5.1;3.95;;;;;;;-0.4;85.27344;96471.92;;;;
2019/12/31 04:25:31;;;;;;;5.1;3.95;;;;;;;-0.4;85.27344;96471.92;;;;
2019/12/31 04:26:32;;;;;;;5.1;3.95;;;;;;;-0.4;85.27344;96471.92;;;;
2019/12/31 04:27:32;;;;;;;5.1;3.95;;;;;;;-0.4;85.27344;96471.92;;;;
2019/12/31 04:28:33;;;;;;;5.1;3.95;;;;;;;-0.4;85.27344;96471.92;;;;
2019/12/31 04:29:33;;;;;;;5.1;3.95;;;;;;;-0.4;85.27344;96471.92;;;;
2019/12/31 04:30:34;;;;;;;5.1;3.95;;;;;;;-0.4;85.27344;96471.92;;;;
2019/12/31 04:31:34;;;;;;;5.1;3.95;;;;;;;-0.4;85.27344;96471.92;;;;
2019/12/31 04:32:34;;;;;;;5.1;3.95;;;;;;;-0.4;85.27344;96471.92;;;;
2019/12/31 04:33:35;;;;;;;5.9;3.95;;;;;;;-0.31;85.11621;96455.58;;;;
2019/12/31 04:34:35;;;;;;;5.9;3.95;;;;;;;-0.31;85.11621;96455.58;;;;
2019/12/31 04:35:36;;;;;;;5.9;3.95;;;;;;;-0.31;85.11621;96455.58;;;;
2019/12/31 04:36:36;;;;;;;5.9;3.95;;;;;;;-0.31;85.11621;96455.58;;;;
2019/12/31 04:37:37;;;;;;;5.9;3.95;;;;;;;-0.31;85.11621;96455.58;;;;
2019/12/31 04:38:37;;;;;;;5.9;3.95;;;;;;;-0.31;85.11621;96455.58;;;;
2019/12/31 04:39:38;;;;;;;5.9;3.95;;;;;;;-0.31;85.11621;96455.58;;;;
2019/12/31 04:40:38;;;;;;;5.9;3.95;;;;;;;-0.31;85.11621;96455.58;;;;
2019/12/31 04:41:39;;;;;;;5.9;3.95;;;;;;;-0.31;85.11621;96455.58;;;;
2019/12/31 04:42:39;;;;;;;5.9;3.95;;;;;;;-0.31;85.11621;96455.58;;;;
2019/12/31 04:43:40;;;;;;;5.9;3.95;;;;;;;-0.31;85.11621;96455.58;;;;
2019/12/31 04:44:40;;;;;;;5;3.75;;;;;;;-0.48;85.15332;96466.03;;;;
2019/12/31 04:45:40;;;;;;;5;3.75;;;;;;;-0.48;85.15332;96466.03;;;;
2019/12/31 04:46:41;;;;;;;5;3.75;;;;;;;-0.48;85.15332;96466.03;;;;
2019/12/31 04:47:41;;;;;;;5;3.75;;;;;;;-0.48;85.15332;96466.03;;;;
2019/12/31 04:48:42;;;;;;;5;3.75;;;;;;;-0.48;85.15332;96466.03;;;;
2019/12/31 04:49:42;;;;;;;5;3.75;;;;;;;-0.48;85.15332;96466.03;;;;
2019/12/31 04:50:43;;;;;;;5;3.75;;;;;;;-0.48;85.15332;96466.03;;;;
2019/12/31 04:51:43;;;;;;;5;3.75;;;;;;;-0.48;85.15332;96466.03;;;;
2019/12/31 04:52:44;;;;;;;5;3.75;;;;;;;-0.48;85.15332;96466.03;;;;
2019/12/31 04:53:44;;;;;;;5;3.75;;;;;;;-0.48;85.15332;96466.03;;;;
2019/12/31 04:54:44;;;;;;;5;3.75;;;;;;;-0.48;85.15332;96466.03;;;;
2019/12/31 04:55:45;;;;;;;5.450001;3.9;;;;;;;-0.66;85.51172;96488.86;;;;
2019/12/31 04:56:45;;;;;;;5.450001;3.9;;;;;;;-0.66;85.51172;96488.86;;;;
2019/12/31 04:57:46;;;;;;;5.450001;3.9;;;;;;;-0.66;85.51172;96488.86;;;;
2019/12/31 04:58:46;;;;;;;5.450001;3.9;;;;;;;-0.66;85.51172;96488.86;;;;
2019/12/31 04:59:47;;;;;;;5.450001;3.9;;;;;;;-0.66;85.51172;96488.86;;;;
2019/12/31 05:00:47;;;;;;;5.450001;3.9;;;;;;;-0.66;85.51172;96488.86;;;;
2019/12/31 05:01:48;;;;;;;5.450001;3.9;;;;;;;-0.66;85.51172;96488.86;;;;
2019/12/31 05:03:24;;;;;;;5.450001;3.9;;;;;;;-0.66;85.51172;96488.86;;;;
2019/12/31 05:04:25;;;;;;;5.450001;3.9;;;;;;;-0.66;85.51172;96488.86;;;;
2019/12/31 05:05:26;;;;;;;5.1;3.65;;;;;;;-0.84;85.81641;96482.61;;;;
2019/12/31 05:06:27;;;;;;;5.1;3.65;;;;;;;-0.84;85.81641;96482.61;;;;
2019/12/31 05:07:27;;;;;;;5.1;3.65;;;;;;;-0.84;85.81641;96482.61;;;;
2019/12/31 05:08:28;;;;;;;5.1;3.65;;;;;;;-0.84;85.81641;96482.61;;;;
2019/12/31 05:09:28;;;;;;;5.1;3.65;;;;;;;-0.84;85.81641;96482.61;;;;
2019/12/31 05:10:29;;;;;;;5.1;3.65;;;;;;;-0.84;85.81641;96482.61;;;;
2019/12/31 05:11:29;;;;;;;5.1;3.65;;;;;;;-0.84;85.81641;96482.61;;;;
2019/12/31 05:12:30;;;;;;;5.1;3.65;;;;;;;-0.84;85.81641;96482.61;;;;
2019/12/31 05:13:30;;;;;;;5.1;3.65;;;;;;;-0.84;85.81641;96482.61;;;;
2019/12/31 05:14:31;;;;;;;5.1;3.65;;;;;;;-0.84;85.81641;96482.61;;;;
2019/12/31 05:15:31;;;;;;;5.1;3.65;;;;;;;-0.84;85.81641;96482.61;;;;
2019/12/31 05:16:31;;;;;;;5.95;3.75;;;;;;;-0.94;85.98438;96488.34;;;;
2019/12/31 05:17:32;;;;;;;5.95;3.75;;;;;;;-0.94;85.98438;96488.34;;;;
2019/12/31 05:18:32;;;;;;;5.95;3.75;;;;;;;-0.94;85.98438;96488.34;;;;
2019/12/31 05:19:33;;;;;;;5.95;3.75;;;;;;;-0.94;85.98438;96488.34;;;;
2019/12/31 05:20:33;;;;;;;5.95;3.75;;;;;;;-0.94;85.98438;96488.34;;;;
2019/12/31 05:21:34;;;;;;;5.95;3.75;;;;;;;-0.94;85.98438;96488.34;;;;
2019/12/31 05:22:34;;;;;;;5.95;3.75;;;;;;;-0.94;85.98438;96488.34;;;;
2019/12/31 05:23:35;;;;;;;5.95;3.75;;;;;;;-0.94;85.98438;96488.34;;;;
2019/12/31 05:24:35;;;;;;;5.95;3.75;;;;;;;-0.94;85.98438;96488.34;;;;
2019/12/31 05:25:36;;;;;;;5.95;3.75;;;;;;;-0.94;85.98438;96488.34;;;;
2019/12/31 05:26:36;;;;;;;5.95;3.75;;;;;;;-0.94;85.98438;96488.34;;;;
2019/12/31 05:27:37;;;;;;;4.950001;3.5;;;;;;;-1;86.12891;96483.58;;;;
2019/12/31 05:28:37;;;;;;;4.950001;3.5;;;;;;;-1;86.12891;96483.58;;;;
2019/12/31 05:29:38;;;;;;;4.950001;3.5;;;;;;;-1;86.12891;96483.58;;;;
2019/12/31 05:30:38;;;;;;;4.950001;3.5;;;;;;;-1;86.12891;96483.58;;;;
2019/12/31 05:31:38;;;;;;;4.950001;3.5;;;;;;;-1;86.12891;96483.58;;;;
2019/12/31 05:32:39;;;;;;;4.950001;3.5;;;;;;;-1;86.12891;96483.58;;;;
2019/12/31 05:33:39;;;;;;;4.950001;3.5;;;;;;;-1;86.12891;96483.58;;;;
2019/12/31 05:34:40;;;;;;;4.950001;3.5;;;;;;;-1;86.12891;96483.58;;;;
2019/12/31 05:35:40;;;;;;;4.950001;3.5;;;;;;;-1;86.12891;96483.58;;;;
2019/12/31 05:36:41;;;;;;;4.950001;3.5;;;;;;;-1;86.12891;96483.58;;;;
2019/12/31 05:37:41;;;;;;;4.3;3.25;;;;;;;-1.13;86.25977;96482.08;;;;
2019/12/31 05:38:42;;;;;;;4.3;3.25;;;;;;;-1.13;86.25977;96482.08;;;;
2019/12/31 05:39:42;;;;;;;4.3;3.25;;;;;;;-1.13;86.25977;96482.08;;;;
2019/12/31 05:40:43;;;;;;;4.3;3.25;;;;;;;-1.13;86.25977;96482.08;;;;
2019/12/31 05:41:43;;;;;;;4.3;3.25;;;;;;;-1.13;86.25977;96482.08;;;;
2019/12/31 05:42:44;;;;;;;4.3;3.25;;;;;;;-1.13;86.25977;96482.08;;;;
2019/12/31 05:43:44;;;;;;;4.3;3.25;;;;;;;-1.13;86.25977;96482.08;;;;
2019/12/31 05:44:45;;;;;;;4.3;3.25;;;;;;;-1.13;86.25977;96482.08;;;;
2019/12/31 05:45:45;;;;;;;4.3;3.25;;;;;;;-1.13;86.25977;96482.08;;;;
2019/12/31 05:46:46;;;;;;;4.3;3.25;;;;;;;-1.13;86.25977;96482.08;;;;
2019/12/31 05:47:46;;;;;;;4.3;3.25;;;;;;;-1.13;86.25977;96482.08;;;;
2019/12/31 05:48:46;;;;;;;4.3;3.15;;;;;;;-1.25;86.53418;96478.34;;;;
2019/12/31 05:49:47;;;;;;;4.3;3.15;;;;;;;-1.25;86.53418;96478.34;;;;
2019/12/31 05:50:47;;;;;;;4.3;3.15;;;;;;;-1.25;86.53418;96478.34;;;;